sensor_id;sensor_type;location;lat;lon;timestamp;pressure;altitude;pressure_sealevel;temperature;humidity
7182;BME280;3632;42.724;23.298;2022-12-18T00:01:46;95737.38;;;4.73;100.00
7182;BME280;3632;42.724;23.298;2022-12-18T00:04:18;96024.88;;;6.41;100.00
7182;BME280;3632;42.724;23.298;2022-12-18T00:06:46;96167.75;;;7.22;100.00
7182;BME280;3632;42.724;23.298;2022-12-18T00:09:13;96162.25;;;7.14;100.00
7182;BME280;3632;42.724;23.298;2022-12-18T00:11:40;96157.50;;;7.08;100.00
7182;BME280;3632;42.724;23.298;2022-12-18T00:14:08;95987.16;;;6.03;100.00
7182;BME280;3632;42.724;23.298;2022-12-18T00:16:35;96185.50;;;7.22;100.00
7182;BME280;3632;42.724;23.298;2022-12-18T00:19:04;96111.56;;;6.47;100.00
7182;BME280;3632;42.724;23.298;2022-12-18T00:21:32;96095.84;;;6.74;100.00
7182;BME280;3632;42.724;23.298;2022-12-18T00:23:59;96128.66;;;6.93;100.00
7182;BME280;3632;42.724;23.298;2022-12-18T00:26:28;96177.16;;;7.20;100.00
7182;BME280;3632;42.724;23.298;2022-12-18T00:28:58;96184.19;;;7.15;100.00
7182;BME280;3632;42.724;23.298;2022-12-18T00:31:26;96177.47;;;6.97;100.00
7182;BME280;3632;42.724;23.298;2022-12-18T00:33:53;96161.34;;;6.82;100.00
7182;BME280;3632;42.724;23.298;2022-12-18T00:36:23;96195.16;;;6.98;100.00
7182;BME280;3632;42.724;23.298;2022-12-18T00:38:51;96186.72;;;6.98;100.00
7182;BME280;3632;42.724;23.298;2022-12-18T00:41:18;96219.00;;;6.94;100.00
7182;BME280;3632;42.724;23.298;2022-12-18T00:43:58;96128.84;;;6.56;100.00
7182;BME280;3632;42.724;23.298;2022-12-18T00:46:25;96190.59;;;6.87;100.00
7182;BME280;3632;42.724;23.298;2022-12-18T00:48:52;96204.03;;;6.89;100.00
7182;BME280;3632;42.724;23.298;2022-12-18T00:51:19;96125.66;;;6.35;100.00
7182;BME280;3632;42.724;23.298;2022-12-18T00:53:47;96227.44;;;6.77;100.00
7182;BME280;3632;42.724;23.298;2022-12-18T00:56:14;96206.13;;;6.81;100.00
7182;BME280;3632;42.724;23.298;2022-12-18T00:58:41;96216.03;;;6.86;100.00
7182;BME280;3632;42.724;23.298;2022-12-18T01:01:08;96215.16;;;6.87;100.00
7182;BME280;3632;42.724;23.298;2022-12-18T01:03:35;96230.97;;;6.39;100.00
7182;BME280;3632;42.724;23.298;2022-12-18T01:06:06;96215.00;;;6.73;100.00
7182;BME280;3632;42.724;23.298;2022-12-18T01:08:32;96131.59;;;6.17;100.00
7182;BME280;3632;42.724;23.298;2022-12-18T01:11:01;96218.13;;;6.78;100.00
7182;BME280;3632;42.724;23.298;2022-12-18T01:13:33;95906.19;;;4.81;100.00
7182;BME280;3632;42.724;23.298;2022-12-18T01:15:59;96228.03;;;6.82;100.00
7182;BME280;3632;42.724;23.298;2022-12-18T01:18:26;96230.25;;;6.71;100.00
7182;BME280;3632;42.724;23.298;2022-12-18T01:20:53;95959.34;;;4.20;100.00
7182;BME280;3632;42.724;23.298;2022-12-18T01:23:20;96236.22;;;6.53;100.00
7182;BME280;3632;42.724;23.298;2022-12-18T01:25:47;96183.91;;;6.16;100.00
7182;BME280;3632;42.724;23.298;2022-12-18T01:28:15;96231.44;;;6.64;100.00
7182;BME280;3632;42.724;23.298;2022-12-18T01:30:42;96231.03;;;6.55;100.00
7182;BME280;3632;42.724;23.298;2022-12-18T01:33:08;96244.09;;;6.64;100.00
7182;BME280;3632;42.724;23.298;2022-12-18T01:35:40;96233.53;;;6.56;100.00
7182;BME280;3632;42.724;23.298;2022-12-18T01:38:07;96054.53;;;5.33;100.00
7182;BME280;3632;42.724;23.298;2022-12-18T01:40:34;96186.34;;;6.01;100.00
7182;BME280;3632;42.724;23.298;2022-12-18T01:43:00;96243.31;;;6.45;100.00
7182;BME280;3632;42.724;23.298;2022-12-18T01:45:29;96290.34;;;5.94;100.00
7182;BME280;3632;42.724;23.298;2022-12-18T01:47:59;96254.81;;;6.52;100.00
7182;BME280;3632;42.724;23.298;2022-12-18T01:50:30;96176.56;;;5.56;100.00
7182;BME280;3632;42.724;23.298;2022-12-18T01:53:02;96213.28;;;6.02;100.00
7182;BME280;3632;42.724;23.298;2022-12-18T01:55:32;96101.97;;;5.27;100.00
7182;BME280;3632;42.724;23.298;2022-12-18T01:58:01;96252.50;;;6.29;100.00
7182;BME280;3632;42.724;23.298;2022-12-18T02:00:30;96258.97;;;6.36;100.00
7182;BME280;3632;42.724;23.298;2022-12-18T02:02:57;96255.50;;;6.37;100.00
7182;BME280;3632;42.724;23.298;2022-12-18T02:05:32;96258.13;;;6.35;100.00
7182;BME280;3632;42.724;23.298;2022-12-18T02:08:08;96201.53;;;6.01;100.00
7182;BME280;3632;42.724;23.298;2022-12-18T02:10:39;96151.88;;;5.79;100.00
7182;BME280;3632;42.724;23.298;2022-12-18T02:13:13;96274.16;;;6.36;100.00
7182;BME280;3632;42.724;23.298;2022-12-18T02:15:46;96275.50;;;6.24;100.00
7182;BME280;3632;42.724;23.298;2022-12-18T02:18:20;96271.25;;;6.25;100.00
7182;BME280;3632;42.724;23.298;2022-12-18T02:20:55;96278.38;;;6.17;100.00
7182;BME280;3632;42.724;23.298;2022-12-18T02:23:40;96265.81;;;6.15;100.00
7182;BME280;3632;42.724;23.298;2022-12-18T02:26:16;96277.50;;;6.18;100.00
7182;BME280;3632;42.724;23.298;2022-12-18T02:28:47;96284.22;;;6.19;100.00
7182;BME280;3632;42.724;23.298;2022-12-18T02:31:19;96277.03;;;6.10;100.00
7182;BME280;3632;42.724;23.298;2022-12-18T02:33:49;96301.09;;;6.00;100.00
7182;BME280;3632;42.724;23.298;2022-12-18T02:36:17;96248.53;;;5.86;100.00
7182;BME280;3632;42.724;23.298;2022-12-18T02:38:45;96277.59;;;5.97;100.00
7182;BME280;3632;42.724;23.298;2022-12-18T02:41:15;96289.00;;;6.06;100.00
7182;BME280;3632;42.724;23.298;2022-12-18T02:43:47;96290.09;;;6.01;100.00
7182;BME280;3632;42.724;23.298;2022-12-18T02:46:28;96296.16;;;5.96;100.00
7182;BME280;3632;42.724;23.298;2022-12-18T02:49:03;96248.97;;;5.57;100.00
7182;BME280;3632;42.724;23.298;2022-12-18T02:51:39;96210.59;;;5.28;100.00
7182;BME280;3632;42.724;23.298;2022-12-18T02:54:21;96112.81;;;4.31;100.00
7182;BME280;3632;42.724;23.298;2022-12-18T02:56:55;96300.97;;;5.82;100.00
7182;BME280;3632;42.724;23.298;2022-12-18T02:59:29;96304.94;;;5.89;100.00
7182;BME280;3632;42.724;23.298;2022-12-18T03:02:02;96294.59;;;5.74;100.00
7182;BME280;3632;42.724;23.298;2022-12-18T03:04:39;96297.72;;;5.60;100.00
7182;BME280;3632;42.724;23.298;2022-12-18T03:07:13;96320.75;;;5.54;100.00
7182;BME280;3632;42.724;23.298;2022-12-18T03:09:46;96300.22;;;5.60;100.00
7182;BME280;3632;42.724;23.298;2022-12-18T03:12:19;96298.22;;;5.68;100.00
7182;BME280;3632;42.724;23.298;2022-12-18T03:14:53;96258.09;;;5.40;100.00
7182;BME280;3632;42.724;23.298;2022-12-18T03:17:23;96232.16;;;5.17;100.00
7182;BME280;3632;42.724;23.298;2022-12-18T03:19:52;96304.41;;;5.61;100.00
7182;BME280;3632;42.724;23.298;2022-12-18T03:22:22;96312.69;;;5.65;100.00
7182;BME280;3632;42.724;23.298;2022-12-18T03:24:51;96318.03;;;5.59;100.00
7182;BME280;3632;42.724;23.298;2022-12-18T03:27:20;96328.31;;;5.54;100.00
7182;BME280;3632;42.724;23.298;2022-12-18T03:29:51;96325.09;;;5.50;100.00
7182;BME280;3632;42.724;23.298;2022-12-18T03:32:24;96061.88;;;3.81;100.00
7182;BME280;3632;42.724;23.298;2022-12-18T03:34:53;96331.72;;;5.53;100.00
7182;BME280;3632;42.724;23.298;2022-12-18T03:37:24;96350.31;;;5.52;100.00
7182;BME280;3632;42.724;23.298;2022-12-18T03:39:51;96341.97;;;5.50;100.00
7182;BME280;3632;42.724;23.298;2022-12-18T03:42:25;96344.88;;;5.61;100.00
7182;BME280;3632;42.724;23.298;2022-12-18T03:44:58;96352.34;;;5.64;100.00
7182;BME280;3632;42.724;23.298;2022-12-18T03:47:29;96360.81;;;5.63;100.00
7182;BME280;3632;42.724;23.298;2022-12-18T03:50:02;96363.28;;;5.65;100.00
7182;BME280;3632;42.724;23.298;2022-12-18T03:52:35;96367.31;;;5.69;100.00
7182;BME280;3632;42.724;23.298;2022-12-18T03:55:05;96357.47;;;5.63;100.00
7182;BME280;3632;42.724;23.298;2022-12-18T03:57:35;96363.22;;;5.66;100.00
7182;BME280;3632;42.724;23.298;2022-12-18T04:00:05;96374.28;;;5.64;100.00
7182;BME280;3632;42.724;23.298;2022-12-18T04:02:34;96356.66;;;5.62;100.00
7182;BME280;3632;42.724;23.298;2022-12-18T04:05:05;96270.06;;;4.96;100.00
7182;BME280;3632;42.724;23.298;2022-12-18T04:07:33;96364.03;;;5.46;100.00
7182;BME280;3632;42.724;23.298;2022-12-18T04:10:01;96375.72;;;5.29;100.00
7182;BME280;3632;42.724;23.298;2022-12-18T04:12:29;96376.47;;;5.31;100.00
7182;BME280;3632;42.724;23.298;2022-12-18T04:14:57;96368.50;;;5.20;100.00
7182;BME280;3632;42.724;23.298;2022-12-18T04:17:24;96382.34;;;5.31;100.00
7182;BME280;3632;42.724;23.298;2022-12-18T04:19:51;96396.00;;;5.47;100.00
7182;BME280;3632;42.724;23.298;2022-12-18T04:22:18;96395.03;;;5.51;100.00
7182;BME280;3632;42.724;23.298;2022-12-18T04:24:44;96271.34;;;4.65;99.55
7182;BME280;3632;42.724;23.298;2022-12-18T04:27:11;96412.00;;;5.48;100.00
7182;BME280;3632;42.724;23.298;2022-12-18T04:29:38;96408.22;;;5.38;100.00
7182;BME280;3632;42.724;23.298;2022-12-18T04:32:07;96415.38;;;5.27;99.65
7182;BME280;3632;42.724;23.298;2022-12-18T04:34:34;96320.88;;;4.67;99.70
7182;BME280;3632;42.724;23.298;2022-12-18T04:37:00;96415.50;;;5.24;99.05
7182;BME280;3632;42.724;23.298;2022-12-18T04:39:27;96418.34;;;5.16;98.70
7182;BME280;3632;42.724;23.298;2022-12-18T04:41:54;96286.53;;;4.20;98.30
7182;BME280;3632;42.724;23.298;2022-12-18T04:44:21;96424.31;;;5.14;98.53
7182;BME280;3632;42.724;23.298;2022-12-18T04:46:47;96447.84;;;5.16;97.58
7182;BME280;3632;42.724;23.298;2022-12-18T04:49:15;96430.81;;;5.21;98.09
7182;BME280;3632;42.724;23.298;2022-12-18T04:51:42;96437.44;;;5.23;96.74
7182;BME280;3632;42.724;23.298;2022-12-18T04:54:09;96445.38;;;5.14;97.18
7182;BME280;3632;42.724;23.298;2022-12-18T04:56:36;96362.25;;;4.41;97.93
7182;BME280;3632;42.724;23.298;2022-12-18T04:59:02;96449.00;;;5.07;97.62
7182;BME280;3632;42.724;23.298;2022-12-18T05:01:30;96461.47;;;5.12;97.39
7182;BME280;3632;42.724;23.298;2022-12-18T05:03:57;96446.44;;;5.09;96.81
7182;BME280;3632;42.724;23.298;2022-12-18T05:06:25;96455.25;;;4.98;97.79
7182;BME280;3632;42.724;23.298;2022-12-18T05:08:52;96458.41;;;5.03;97.58
7182;BME280;3632;42.724;23.298;2022-12-18T05:11:18;96477.44;;;4.90;97.48
7182;BME280;3632;42.724;23.298;2022-12-18T05:13:45;96462.97;;;4.94;98.91
7182;BME280;3632;42.724;23.298;2022-12-18T05:16:13;96468.09;;;4.92;98.04
7182;BME280;3632;42.724;23.298;2022-12-18T05:18:41;96463.09;;;4.91;98.55
7182;BME280;3632;42.724;23.298;2022-12-18T05:21:08;96487.41;;;4.93;98.95
7182;BME280;3632;42.724;23.298;2022-12-18T05:23:36;96480.63;;;4.95;98.95
7182;BME280;3632;42.724;23.298;2022-12-18T05:26:05;96325.16;;;3.26;98.57
7182;BME280;3632;42.724;23.298;2022-12-18T05:28:34;96032.41;;;1.98;99.30
7182;BME280;3632;42.724;23.298;2022-12-18T05:31:03;96493.59;;;4.86;99.56
7182;BME280;3632;42.724;23.298;2022-12-18T05:33:31;96489.25;;;4.90;98.99
7182;BME280;3632;42.724;23.298;2022-12-18T05:36:00;96513.91;;;4.83;98.25
7182;BME280;3632;42.724;23.298;2022-12-18T05:38:27;96507.13;;;4.84;98.61
7182;BME280;3632;42.724;23.298;2022-12-18T05:40:56;96514.78;;;4.82;97.35
7182;BME280;3632;42.724;23.298;2022-12-18T05:43:25;96515.97;;;4.49;97.06
7182;BME280;3632;42.724;23.298;2022-12-18T05:45:52;96519.97;;;4.54;97.80
7182;BME280;3632;42.724;23.298;2022-12-18T05:48:23;96435.03;;;4.05;97.81
7182;BME280;3632;42.724;23.298;2022-12-18T05:51:03;96519.16;;;4.54;97.60
7182;BME280;3632;42.724;23.298;2022-12-18T05:53:31;96515.81;;;4.53;96.83
7182;BME280;3632;42.724;23.298;2022-12-18T05:56:01;96534.25;;;4.55;97.23
7182;BME280;3632;42.724;23.298;2022-12-18T05:58:28;96535.34;;;4.48;97.28
7182;BME280;3632;42.724;23.298;2022-12-18T06:00:56;96537.72;;;4.53;97.70
7182;BME280;3632;42.724;23.298;2022-12-18T06:03:24;96533.25;;;4.59;97.68
7182;BME280;3632;42.724;23.298;2022-12-18T06:05:50;96547.59;;;4.59;97.12
7182;BME280;3632;42.724;23.298;2022-12-18T06:08:17;96565.81;;;4.67;96.56
7182;BME280;3632;42.724;23.298;2022-12-18T06:10:50;96548.38;;;4.61;95.78
7182;BME280;3632;42.724;23.298;2022-12-18T06:13:19;96214.13;;;2.02;95.50
7182;BME280;3632;42.724;23.298;2022-12-18T06:15:46;96532.84;;;4.47;96.26
7182;BME280;3632;42.724;23.298;2022-12-18T06:18:13;96546.28;;;4.72;95.57
7182;BME280;3632;42.724;23.298;2022-12-18T06:20:40;96550.47;;;4.73;95.78
7182;BME280;3632;42.724;23.298;2022-12-18T06:23:07;96575.91;;;4.67;95.74
7182;BME280;3632;42.724;23.298;2022-12-18T06:25:37;96549.91;;;4.65;95.99
7182;BME280;3632;42.724;23.298;2022-12-18T06:28:04;96561.94;;;4.82;95.81
7182;BME280;3632;42.724;23.298;2022-12-18T06:30:32;96596.66;;;4.26;94.79
7182;BME280;3632;42.724;23.298;2022-12-18T06:32:59;96557.91;;;4.76;94.46
7182;BME280;3632;42.724;23.298;2022-12-18T06:35:26;96381.03;;;3.37;94.18
7182;BME280;3632;42.724;23.298;2022-12-18T06:37:53;96432.56;;;3.79;94.92
7182;BME280;3632;42.724;23.298;2022-12-18T06:40:20;96545.31;;;4.51;94.39
7182;BME280;3632;42.724;23.298;2022-12-18T06:42:47;96500.44;;;4.11;93.51
7182;BME280;3632;42.724;23.298;2022-12-18T06:45:13;96583.91;;;4.55;93.75
7182;BME280;3632;42.724;23.298;2022-12-18T06:47:41;96589.53;;;4.63;92.90
7182;BME280;3632;42.724;23.298;2022-12-18T06:50:08;96591.44;;;4.81;93.38
7182;BME280;3632;42.724;23.298;2022-12-18T06:52:35;96589.25;;;4.95;92.05
7182;BME280;3632;42.724;23.298;2022-12-18T06:55:03;96586.59;;;4.98;90.39
7182;BME280;3632;42.724;23.298;2022-12-18T06:57:30;96592.59;;;4.96;90.63
7182;BME280;3632;42.724;23.298;2022-12-18T06:59:56;96577.41;;;4.73;89.80
7182;BME280;3632;42.724;23.298;2022-12-18T07:02:23;96592.41;;;4.77;89.92
7182;BME280;3632;42.724;23.298;2022-12-18T07:04:51;96597.47;;;4.77;90.27
7182;BME280;3632;42.724;23.298;2022-12-18T07:07:18;96607.16;;;4.65;90.09
7182;BME280;3632;42.724;23.298;2022-12-18T07:09:45;96132.69;;;1.79;89.34
7182;BME280;3632;42.724;23.298;2022-12-18T07:12:12;96603.81;;;4.64;89.63
7182;BME280;3632;42.724;23.298;2022-12-18T07:14:39;96602.97;;;4.39;90.87
7182;BME280;3632;42.724;23.298;2022-12-18T07:17:06;96606.97;;;4.20;93.81
7182;BME280;3632;42.724;23.298;2022-12-18T07:19:34;96605.34;;;4.17;94.48
7182;BME280;3632;42.724;23.298;2022-12-18T07:22:03;96603.81;;;4.13;95.55
7182;BME280;3632;42.724;23.298;2022-12-18T07:24:30;96610.41;;;4.17;96.02
7182;BME280;3632;42.724;23.298;2022-12-18T07:26:58;96477.88;;;3.30;96.28
7182;BME280;3632;42.724;23.298;2022-12-18T07:29:25;96516.31;;;2.78;96.71
7182;BME280;3632;42.724;23.298;2022-12-18T07:31:52;96595.13;;;3.95;96.31
7182;BME280;3632;42.724;23.298;2022-12-18T07:34:20;96601.50;;;4.07;96.76
7182;BME280;3632;42.724;23.298;2022-12-18T07:36:47;96524.88;;;3.57;96.45
7182;BME280;3632;42.724;23.298;2022-12-18T07:39:16;96414.06;;;2.46;96.29
7182;BME280;3632;42.724;23.298;2022-12-18T07:41:43;96635.75;;;4.14;96.88
7182;BME280;3632;42.724;23.298;2022-12-18T07:44:31;96517.72;;;3.71;96.05
7182;BME280;3632;42.724;23.298;2022-12-18T07:46:59;96628.34;;;4.34;94.42
7182;BME280;3632;42.724;23.298;2022-12-18T07:49:28;96629.91;;;4.12;95.09
7182;BME280;3632;42.724;23.298;2022-12-18T07:52:04;96283.75;;;1.70;97.74
7182;BME280;3632;42.724;23.298;2022-12-18T07:54:37;96064.00;;;0.35;99.13
7182;BME280;3632;42.724;23.298;2022-12-18T07:57:06;96631.69;;;4.08;100.00
7182;BME280;3632;42.724;23.298;2022-12-18T07:59:33;96584.13;;;3.70;98.79
7182;BME280;3632;42.724;23.298;2022-12-18T08:02:00;96653.72;;;4.03;96.87
7182;BME280;3632;42.724;23.298;2022-12-18T08:04:29;96648.19;;;3.92;100.00
7182;BME280;3632;42.724;23.298;2022-12-18T08:07:08;96548.41;;;3.30;100.00
7182;BME280;3632;42.724;23.298;2022-12-18T08:09:36;96662.78;;;4.37;100.00
7182;BME280;3632;42.724;23.298;2022-12-18T08:12:03;96661.28;;;4.82;100.00
7182;BME280;3632;42.724;23.298;2022-12-18T08:14:30;96130.25;;;1.49;94.88
7182;BME280;3632;42.724;23.298;2022-12-18T08:16:57;96659.34;;;4.64;94.24
7182;BME280;3632;42.724;23.298;2022-12-18T08:19:24;96582.41;;;4.25;93.09
7182;BME280;3632;42.724;23.298;2022-12-18T08:21:51;96621.88;;;4.52;92.47
7182;BME280;3632;42.724;23.298;2022-12-18T08:24:18;96678.53;;;4.94;92.15
7182;BME280;3632;42.724;23.298;2022-12-18T08:26:46;96680.97;;;4.97;90.11
7182;BME280;3632;42.724;23.298;2022-12-18T08:29:13;96681.75;;;4.99;89.83
7182;BME280;3632;42.724;23.298;2022-12-18T08:31:40;96607.72;;;4.73;89.39
7182;BME280;3632;42.724;23.298;2022-12-18T08:34:08;96679.63;;;5.12;88.38
7182;BME280;3632;42.724;23.298;2022-12-18T08:36:35;96691.06;;;4.97;87.67
7182;BME280;3632;42.724;23.298;2022-12-18T08:39:02;96683.06;;;4.85;87.87
7182;BME280;3632;42.724;23.298;2022-12-18T08:41:28;96708.72;;;4.99;86.18
7182;BME280;3632;42.724;23.298;2022-12-18T08:43:56;96712.53;;;4.86;86.31
7182;BME280;3632;42.724;23.298;2022-12-18T08:46:42;96689.38;;;4.73;85.79
7182;BME280;3632;42.724;23.298;2022-12-18T08:49:10;96625.84;;;4.34;86.35
7182;BME280;3632;42.724;23.298;2022-12-18T08:51:38;96694.66;;;4.92;86.20
7182;BME280;3632;42.724;23.298;2022-12-18T08:54:05;96695.06;;;5.04;86.05
7182;BME280;3632;42.724;23.298;2022-12-18T08:56:33;96695.53;;;5.14;86.96
7182;BME280;3632;42.724;23.298;2022-12-18T08:59:01;96591.63;;;4.50;84.74
7182;BME280;3632;42.724;23.298;2022-12-18T09:01:30;96653.44;;;4.90;84.07
7182;BME280;3632;42.724;23.298;2022-12-18T09:03:56;96646.00;;;4.85;84.21
7182;BME280;3632;42.724;23.298;2022-12-18T09:06:23;96703.34;;;5.08;82.64
7182;BME280;3632;42.724;23.298;2022-12-18T09:08:51;96699.88;;;5.11;82.30
7182;BME280;3632;42.724;23.298;2022-12-18T09:11:22;96709.09;;;5.13;82.59
7182;BME280;3632;42.724;23.298;2022-12-18T09:13:49;96649.09;;;4.93;82.20
7182;BME280;3632;42.724;23.298;2022-12-18T09:16:18;96688.63;;;5.19;81.63
7182;BME280;3632;42.724;23.298;2022-12-18T09:18:45;96695.38;;;5.19;82.24
7182;BME280;3632;42.724;23.298;2022-12-18T09:21:14;96644.00;;;4.95;81.78
7182;BME280;3632;42.724;23.298;2022-12-18T09:23:43;96686.94;;;5.20;82.63
7182;BME280;3632;42.724;23.298;2022-12-18T09:26:10;96694.41;;;5.23;83.06
7182;BME280;3632;42.724;23.298;2022-12-18T09:28:37;96687.81;;;5.19;83.07
7182;BME280;3632;42.724;23.298;2022-12-18T09:31:05;96693.09;;;5.13;82.73
7182;BME280;3632;42.724;23.298;2022-12-18T09:33:35;96688.94;;;5.10;83.66
7182;BME280;3632;42.724;23.298;2022-12-18T09:36:03;96695.63;;;5.13;83.19
7182;BME280;3632;42.724;23.298;2022-12-18T09:38:30;96705.63;;;5.16;83.39
7182;BME280;3632;42.724;23.298;2022-12-18T09:40:59;96641.38;;;4.98;82.34
7182;BME280;3632;42.724;23.298;2022-12-18T09:43:35;96469.53;;;4.05;81.07
7182;BME280;3632;42.724;23.298;2022-12-18T09:46:06;96598.88;;;4.84;80.04
7182;BME280;3632;42.724;23.298;2022-12-18T09:48:38;96687.13;;;5.38;79.62
7182;BME280;3632;42.724;23.298;2022-12-18T09:51:13;96694.13;;;5.55;79.16
7182;BME280;3632;42.724;23.298;2022-12-18T09:53:46;96688.41;;;5.50;77.71
7182;BME280;3632;42.724;23.298;2022-12-18T09:56:18;96692.91;;;5.42;79.22
7182;BME280;3632;42.724;23.298;2022-12-18T09:58:55;96608.59;;;4.96;80.04
7182;BME280;3632;42.724;23.298;2022-12-18T10:01:25;96626.41;;;5.17;79.28
7182;BME280;3632;42.724;23.298;2022-12-18T10:03:54;96664.09;;;5.46;79.41
7182;BME280;3632;42.724;23.298;2022-12-18T10:06:24;96654.66;;;5.51;79.15
7182;BME280;3632;42.724;23.298;2022-12-18T10:08:58;96688.81;;;5.61;79.25
7182;BME280;3632;42.724;23.298;2022-12-18T10:11:37;96665.63;;;5.50;79.97
7182;BME280;3632;42.724;23.298;2022-12-18T10:14:14;96694.13;;;5.55;79.32
7182;BME280;3632;42.724;23.298;2022-12-18T10:16:50;96661.22;;;5.32;79.29
7182;BME280;3632;42.724;23.298;2022-12-18T10:19:35;96683.84;;;5.60;78.53
7182;BME280;3632;42.724;23.298;2022-12-18T10:22:14;96357.00;;;3.78;77.83
7182;BME280;3632;42.724;23.298;2022-12-18T10:24:51;96688.22;;;6.01;78.01
7182;BME280;3632;42.724;23.298;2022-12-18T10:27:23;96684.34;;;6.14;77.29
7182;BME280;3632;42.724;23.298;2022-12-18T10:29:51;96680.69;;;6.21;76.59
7182;BME280;3632;42.724;23.298;2022-12-18T10:32:21;96692.09;;;6.10;77.10
7182;BME280;3632;42.724;23.298;2022-12-18T10:34:51;96501.59;;;4.97;76.40
7182;BME280;3632;42.724;23.298;2022-12-18T10:37:21;96649.81;;;5.68;77.08
7182;BME280;3632;42.724;23.298;2022-12-18T10:40:07;96691.66;;;5.98;77.67
7182;BME280;3632;42.724;23.298;2022-12-18T10:42:34;96678.94;;;6.23;77.63
7182;BME280;3632;42.724;23.298;2022-12-18T10:45:03;96685.78;;;6.20;76.51
7182;BME280;3632;42.724;23.298;2022-12-18T10:47:33;96678.94;;;6.02;76.62
7182;BME280;3632;42.724;23.298;2022-12-18T10:50:03;96688.03;;;5.82;77.29
7182;BME280;3632;42.724;23.298;2022-12-18T10:52:30;95974.53;;;1.49;76.92
7182;BME280;3632;42.724;23.298;2022-12-18T10:54:59;96649.31;;;5.59;76.80
7182;BME280;3632;42.724;23.298;2022-12-18T10:57:32;96647.81;;;5.53;77.26
7182;BME280;3632;42.724;23.298;2022-12-18T11:00:21;96685.03;;;6.18;77.52
7182;BME280;3632;42.724;23.298;2022-12-18T11:02:49;96676.97;;;6.30;76.00
7182;BME280;3632;42.724;23.298;2022-12-18T11:05:26;96695.22;;;6.16;73.95
7182;BME280;3632;42.724;23.298;2022-12-18T11:07:53;96570.16;;;4.64;74.58
7182;BME280;3632;42.724;23.298;2022-12-18T11:10:22;96584.94;;;5.44;75.01
7182;BME280;3632;42.724;23.298;2022-12-18T11:12:49;96644.94;;;5.62;74.94
7182;BME280;3632;42.724;23.298;2022-12-18T11:15:19;96698.56;;;5.95;75.66
7182;BME280;3632;42.724;23.298;2022-12-18T11:17:48;96652.59;;;5.61;76.91
7182;BME280;3632;42.724;23.298;2022-12-18T11:20:27;96590.44;;;5.32;76.00
7182;BME280;3632;42.724;23.298;2022-12-18T11:22:58;96680.75;;;5.98;75.84
7182;BME280;3632;42.724;23.298;2022-12-18T11:25:26;96686.38;;;6.05;75.91
7182;BME280;3632;42.724;23.298;2022-12-18T11:27:58;96359.75;;;3.45;75.28
7182;BME280;3632;42.724;23.298;2022-12-18T11:30:27;96660.69;;;5.93;74.47
7182;BME280;3632;42.724;23.298;2022-12-18T11:32:58;96688.44;;;6.17;74.47
7182;BME280;3632;42.724;23.298;2022-12-18T11:35:40;96607.03;;;5.62;75.18
7182;BME280;3632;42.724;23.298;2022-12-18T11:38:21;96682.38;;;6.21;74.91
7182;BME280;3632;42.724;23.298;2022-12-18T11:40:53;96683.69;;;6.31;74.43
7182;BME280;3632;42.724;23.298;2022-12-18T11:43:26;96684.78;;;6.24;73.74
7182;BME280;3632;42.724;23.298;2022-12-18T11:45:59;96645.91;;;5.81;74.65
7182;BME280;3632;42.724;23.298;2022-12-18T11:48:30;96577.53;;;5.39;74.66
7182;BME280;3632;42.724;23.298;2022-12-18T11:51:03;96696.00;;;6.18;75.44
7182;BME280;3632;42.724;23.298;2022-12-18T11:53:32;96686.03;;;6.14;73.81
7182;BME280;3632;42.724;23.298;2022-12-18T11:56:16;96687.78;;;6.12;74.46
7182;BME280;3632;42.724;23.298;2022-12-18T11:58:48;96692.16;;;6.08;74.81
7182;BME280;3632;42.724;23.298;2022-12-18T12:01:31;96648.25;;;5.86;75.78
7182;BME280;3632;42.724;23.298;2022-12-18T12:07:28;96682.09;;;6.07;75.80
7182;BME280;3632;42.724;23.298;2022-12-18T12:10:09;96684.72;;;6.04;76.01
7182;BME280;3632;42.724;23.298;2022-12-18T12:12:53;96704.09;;;6.05;76.01
7182;BME280;3632;42.724;23.298;2022-12-18T12:15:29;96637.03;;;5.71;75.21
7182;BME280;3632;42.724;23.298;2022-12-18T12:18:03;96683.63;;;6.11;76.24
7182;BME280;3632;42.724;23.298;2022-12-18T12:20:42;96615.78;;;5.75;76.05
7182;BME280;3632;42.724;23.298;2022-12-18T12:23:19;96698.44;;;6.20;75.13
7182;BME280;3632;42.724;23.298;2022-12-18T12:25:54;96694.00;;;6.26;75.11
7182;BME280;3632;42.724;23.298;2022-12-18T12:28:34;96581.19;;;5.54;74.79
7182;BME280;3632;42.724;23.298;2022-12-18T12:31:06;96689.31;;;6.16;74.97
7182;BME280;3632;42.724;23.298;2022-12-18T12:33:40;96681.97;;;6.10;75.49
7182;BME280;3632;42.724;23.298;2022-12-18T12:36:16;96719.25;;;6.28;75.40
7182;BME280;3632;42.724;23.298;2022-12-18T12:38:53;96695.50;;;6.09;75.55
7182;BME280;3632;42.724;23.298;2022-12-18T12:41:24;96696.81;;;6.19;75.52
7182;BME280;3632;42.724;23.298;2022-12-18T12:44:15;96694.22;;;6.20;75.34
7182;BME280;3632;42.724;23.298;2022-12-18T12:46:43;96698.34;;;6.23;76.21
7182;BME280;3632;42.724;23.298;2022-12-18T12:49:12;96627.78;;;5.70;75.86
7182;BME280;3632;42.724;23.298;2022-12-18T12:51:43;96697.84;;;5.91;75.25
7182;BME280;3632;42.724;23.298;2022-12-18T12:54:16;96634.41;;;5.51;76.13
7182;BME280;3632;42.724;23.298;2022-12-18T12:56:49;96701.56;;;6.05;76.14
7182;BME280;3632;42.724;23.298;2022-12-18T12:59:23;96670.66;;;5.73;75.57
7182;BME280;3632;42.724;23.298;2022-12-18T13:01:57;96708.84;;;5.90;74.89
7182;BME280;3632;42.724;23.298;2022-12-18T13:04:33;96712.75;;;5.99;75.68
7182;BME280;3632;42.724;23.298;2022-12-18T13:07:08;96709.09;;;5.83;75.55
7182;BME280;3632;42.724;23.298;2022-12-18T13:10:19;96709.38;;;5.98;75.97
7182;BME280;3632;42.724;23.298;2022-12-18T13:12:53;96751.16;;;5.87;74.59
7182;BME280;3632;42.724;23.298;2022-12-18T13:15:24;96728.22;;;5.91;76.08
7182;BME280;3632;42.724;23.298;2022-12-18T13:18:04;96727.19;;;5.97;75.41
7182;BME280;3632;42.724;23.298;2022-12-18T13:20:36;96736.59;;;5.93;75.37
7182;BME280;3632;42.724;23.298;2022-12-18T13:23:31;96700.69;;;5.82;75.77
7182;BME280;3632;42.724;23.298;2022-12-18T13:26:30;96724.78;;;5.94;75.82
7182;BME280;3632;42.724;23.298;2022-12-18T13:29:01;96745.56;;;5.77;75.88
7182;BME280;3632;42.724;23.298;2022-12-18T13:31:58;96730.59;;;5.96;76.43
7182;BME280;3632;42.724;23.298;2022-12-18T13:34:27;96735.06;;;5.89;75.93
7182;BME280;3632;42.724;23.298;2022-12-18T13:36:55;96739.75;;;5.98;76.82
7182;BME280;3632;42.724;23.298;2022-12-18T13:39:31;96301.50;;;3.05;76.43